Time;durP1;ratioP1;P1;durP2;ratioP2;P2;SDS_P1;SDS_P2;PMS_P1;PMS_P2;Temp;Humidity;BMP_temperature;BMP_pressure;BME280_temperature;BME280_humidity;BME280_pressure;Samples;Min_cycle;Max_cycle;Signal;HPM_P1;HPM_P2
2021/06/26 00:01:47;;;;;;;3.45;1.30;;;17.90;72.60;;;;;;5027897;28;20041;-84
2021/06/26 00:04:14;;;;;;;2.40;1.58;;;17.90;72.50;;;;;;5036584;28;20021;-84
2021/06/26 00:06:40;;;;;;;1.67;1.30;;;17.90;72.40;;;;;;5036814;28;20029;-84
2021/06/26 00:09:08;;;;;;;7.28;1.50;;;17.80;72.60;;;;;;5037255;28;20025;-84
2021/06/26 00:11:36;;;;;;;2.13;1.23;;;17.80;72.70;;;;;;5036361;28;20028;-84
2021/06/26 00:14:03;;;;;;;1.85;1.02;;;17.90;72.50;;;;;;5036201;28;20060;-84
2021/06/26 00:16:29;;;;;;;2.67;1.08;;;17.90;72.50;;;;;;5035827;28;20029;-85
2021/06/26 00:18:55;;;;;;;5.85;1.50;;;17.90;72.30;;;;;;5034668;28;20367;-85
2021/06/26 00:21:20;;;;;;;7.93;1.38;;;17.90;72.30;;;;;;5034160;28;20405;-84
2021/06/26 00:23:46;;;;;;;3.15;1.10;;;18.00;72.20;;;;;;5034977;28;20490;-84
2021/06/26 00:26:12;;;;;;;5.25;1.50;;;18.00;71.70;;;;;;5035255;28;20690;-84
2021/06/26 00:28:38;;;;;;;3.15;0.98;;;18.00;71.60;;;;;;5035785;28;20021;-84
2021/06/26 00:31:03;;;;;;;2.40;1.30;;;17.90;71.70;;;;;;5035798;28;20029;-84
2021/06/26 00:33:29;;;;;;;1.92;1.00;;;17.90;71.80;;;;;;5053606;28;20677;-83
2021/06/26 00:35:55;;;;;;;3.03;1.17;;;17.90;71.50;;;;;;5029337;28;20054;-83
2021/06/26 00:38:21;;;;;;;3.40;1.02;;;17.80;71.60;;;;;;5035977;28;20063;-83
2021/06/26 00:40:47;;;;;;;8.10;1.83;;;17.80;71.70;;;;;;5053425;28;20025;-84
2021/06/26 00:43:13;;;;;;;5.00;1.20;;;17.80;71.70;;;;;;5035797;28;20375;-84
2021/06/26 00:45:38;;;;;;;7.20;1.42;;;17.80;71.80;;;;;;5035760;28;20137;-83
2021/06/26 00:48:05;;;;;;;3.25;1.20;;;17.70;71.70;;;;;;5035661;28;20449;-83
2021/06/26 00:50:31;;;;;;;2.08;1.10;;;17.70;71.90;;;;;;5033284;28;20029;-83
2021/06/26 00:52:57;;;;;;;1.67;1.20;;;17.70;71.80;;;;;;5030876;28;20034;-83
2021/06/26 00:55:23;;;;;;;2.95;1.17;;;17.70;71.70;;;;;;5026625;28;20104;-83
2021/06/26 00:57:56;;;;;;;6.07;1.70;;;17.70;71.60;;;;;;5015292;28;20501;-83
2021/06/26 01:00:23;;;;;;;1.98;1.30;;;17.70;71.70;;;;;;5033327;28;20478;-83
2021/06/26 01:02:49;;;;;;;3.33;1.40;;;17.70;71.70;;;;;;5016028;28;20028;-83
2021/06/26 01:05:15;;;;;;;5.45;1.58;;;17.60;71.70;;;;;;5017785;28;20030;-82
2021/06/26 01:07:40;;;;;;;1.55;1.00;;;17.50;72.00;;;;;;5032891;28;20036;-83
2021/06/26 01:10:07;;;;;;;3.92;1.27;;;17.40;71.90;;;;;;5014185;28;20506;-83
2021/06/26 01:12:33;;;;;;;1.80;1.30;;;17.40;71.80;;;;;;5016035;28;20486;-83
2021/06/26 01:14:59;;;;;;;5.55;1.45;;;17.30;71.90;;;;;;5014859;28;20032;-84
2021/06/26 01:17:25;;;;;;;1.30;0.98;;;17.30;71.90;;;;;;5033023;28;20497;-84
2021/06/26 01:19:51;;;;;;;1.48;1.00;;;17.30;71.80;;;;;;5020144;28;20108;-84
2021/06/26 01:22:21;;;;;;;3.72;1.02;;;17.40;71.90;;;;;;5011777;28;20112;-84
2021/06/26 01:24:51;;;;;;;1.70;1.25;;;17.40;71.60;;;;;;5008330;28;20486;-84
2021/06/26 01:27:17;;;;;;;1.73;1.33;;;17.40;71.50;;;;;;5012660;28;20528;-84
2021/06/26 01:29:52;;;;;;;1.70;0.82;;;17.40;71.50;;;;;;5033200;28;20025;-84
2021/06/26 01:32:18;;;;;;;3.38;1.30;;;17.30;71.50;;;;;;5031610;28;20494;-84
2021/06/26 01:34:44;;;;;;;1.42;0.85;;;17.30;71.50;;;;;;5015311;28;20032;-83
2021/06/26 01:37:11;;;;;;;3.47;1.15;;;17.20;71.40;;;;;;5015904;28;20112;-84
2021/06/26 01:39:37;;;;;;;3.55;0.98;;;17.20;71.60;;;;;;5026111;28;20064;-84
2021/06/26 01:42:04;;;;;;;2.08;0.82;;;17.30;71.50;;;;;;5014242;28;20031;-83
2021/06/26 01:44:29;;;;;;;1.20;0.85;;;17.30;71.40;;;;;;5014371;28;20064;-84
2021/06/26 01:46:55;;;;;;;2.42;1.83;;;17.20;71.40;;;;;;5016600;28;20435;-83
2021/06/26 01:49:21;;;;;;;3.78;1.20;;;17.20;71.50;;;;;;5012892;28;20030;-84
2021/06/26 01:51:46;;;;;;;1.88;1.25;;;17.20;71.70;;;;;;5043869;28;20033;-84
2021/06/26 01:54:13;;;;;;;2.10;1.50;;;17.20;71.40;;;;;;5020838;28;20049;-84
2021/06/26 01:56:40;;;;;;;4.88;1.20;;;17.20;71.30;;;;;;5034263;28;20028;-84
2021/06/26 01:59:06;;;;;;;3.67;1.10;;;17.20;71.20;;;;;;5051560;28;20444;-84
2021/06/26 02:01:33;;;;;;;2.15;1.60;;;17.20;71.20;;;;;;5033514;28;20505;-85
2021/06/26 02:03:59;;;;;;;4.32;1.20;;;17.10;71.30;;;;;;5034890;28;20147;-85
2021/06/26 02:06:24;;;;;;;2.75;1.20;;;17.10;71.40;;;;;;5033869;28;20552;-85
2021/06/26 02:08:50;;;;;;;4.95;1.23;;;17.10;71.60;;;;;;5035036;28;20120;-85
2021/06/26 02:11:16;;;;;;;3.85;1.45;;;17.00;71.80;;;;;;5034240;28;20056;-85
2021/06/26 02:13:42;;;;;;;2.00;1.10;;;17.00;72.10;;;;;;5031588;28;20489;-85
2021/06/26 02:16:08;;;;;;;6.97;1.13;;;17.00;72.10;;;;;;5051411;28;20056;-85
2021/06/26 02:18:33;;;;;;;2.70;1.10;;;17.00;72.00;;;;;;5032478;28;20056;-85
2021/06/26 02:20:59;;;;;;;1.25;0.90;;;17.00;71.80;;;;;;5051221;28;20049;-85
2021/06/26 02:23:25;;;;;;;5.63;1.50;;;16.90;71.70;;;;;;5035372;28;20039;-84
2021/06/26 02:25:51;;;;;;;2.65;0.93;;;16.90;71.60;;;;;;5034147;28;20112;-85
2021/06/26 02:28:16;;;;;;;3.63;1.13;;;16.90;71.80;;;;;;5052370;28;20118;-85
2021/06/26 02:30:42;;;;;;;1.10;0.95;;;16.90;72.50;;;;;;5048918;28;20029;-85
2021/06/26 02:33:08;;;;;;;2.40;1.27;;;16.90;71.90;;;;;;5034281;28;20441;-85
2021/06/26 02:35:33;;;;;;;2.05;1.42;;;16.90;71.90;;;;;;5041656;28;20025;-84
2021/06/26 02:37:59;;;;;;;3.15;1.20;;;16.80;71.80;;;;;;5033568;28;20032;-84
2021/06/26 02:40:25;;;;;;;21.77;6.30;;;16.80;72.20;;;;;;5027655;28;20021;-83
2021/06/26 02:42:50;;;;;;;4.18;1.75;;;16.80;72.20;;;;;;5031961;28;20017;-83
2021/06/26 02:45:16;;;;;;;4.07;1.27;;;16.70;72.30;;;;;;5052034;28;20093;-83
2021/06/26 02:47:45;;;;;;;7.95;2.03;;;16.70;72.50;;;;;;5032862;28;20035;-84
2021/06/26 02:50:12;;;;;;;7.32;1.80;;;16.70;72.30;;;;;;5044804;28;20441;-84
2021/06/26 02:52:37;;;;;;;4.90;1.83;;;16.70;72.30;;;;;;5038416;28;20029;-84
2021/06/26 02:55:04;;;;;;;3.10;1.98;;;16.70;72.30;;;;;;5049528;28;20171;-85
2021/06/26 02:57:29;;;;;;;8.05;2.35;;;16.70;72.50;;;;;;5034123;28;20489;-85
2021/06/26 02:59:56;;;;;;;4.57;1.83;;;16.70;72.60;;;;;;5035082;28;20055;-85
2021/06/26 03:02:46;;;;;;;3.22;1.65;;;16.70;72.40;;;;;;5021754;28;20393;-86
2021/06/26 03:05:11;;;;;;;6.95;2.47;;;16.60;72.10;;;;;;5034622;28;20032;-86
2021/06/26 03:07:37;;;;;;;4.28;2.63;;;16.60;72.10;;;;;;5034359;28;20028;-86
2021/06/26 03:10:03;;;;;;;2.92;2.20;;;16.50;72.20;;;;;;5052051;28;20158;-86
2021/06/26 03:12:29;;;;;;;5.97;2.78;;;16.40;72.30;;;;;;5034786;28;20025;-86
2021/06/26 03:14:55;;;;;;;5.03;3.83;;;16.40;72.40;;;;;;5053332;28;20371;-85
2021/06/26 03:17:21;;;;;;;8.43;4.97;;;16.30;72.50;;;;;;5037746;28;20037;-85
2021/06/26 03:19:46;;;;;;;9.13;4.90;;;16.30;72.70;;;;;;5055403;28;20029;-86
2021/06/26 03:22:12;;;;;;;5.93;3.70;;;16.30;73.10;;;;;;5052056;28;20074;-85
2021/06/26 03:24:38;;;;;;;3.33;2.50;;;16.40;73.20;;;;;;5038828;28;20024;-87
2021/06/26 03:27:04;;;;;;;3.53;2.83;;;16.40;72.80;;;;;;5038282;28;20029;-86
2021/06/26 03:29:30;;;;;;;4.15;3.05;;;16.40;72.70;;;;;;5038160;28;20116;-87
2021/06/26 03:31:55;;;;;;;6.07;2.80;;;16.30;72.60;;;;;;5055183;28;20460;-86
2021/06/26 03:34:21;;;;;;;5.60;2.67;;;16.40;72.80;;;;;;5034833;28;20081;-85
2021/06/26 03:36:47;;;;;;;2.40;2.08;;;16.40;72.60;;;;;;5054526;28;20028;-85
2021/06/26 03:39:13;;;;;;;3.03;1.30;;;16.50;72.30;;;;;;5037058;28;20029;-85
2021/06/26 03:41:38;;;;;;;2.38;1.17;;;16.40;72.00;;;;;;5054305;28;20029;-85
2021/06/26 03:44:04;;;;;;;4.00;1.30;;;16.30;72.20;;;;;;5036798;28;20367;-85
2021/06/26 03:46:30;;;;;;;3.20;1.17;;;16.40;72.00;;;;;;5036691;28;20032;-85
2021/06/26 03:48:56;;;;;;;4.23;1.27;;;16.30;72.00;;;;;;5037031;28;20036;-85
2021/06/26 03:51:22;;;;;;;4.97;1.20;;;16.30;72.40;;;;;;5053938;28;20482;-85
2021/06/26 03:53:49;;;;;;;3.60;1.30;;;16.30;72.50;;;;;;5037378;28;20021;-85
2021/06/26 03:56:15;;;;;;;3.90;1.13;;;16.20;72.60;;;;;;5054763;28;20045;-85
2021/06/26 03:58:41;;;;;;;2.50;0.93;;;16.20;72.70;;;;;;5048959;28;20392;-85
2021/06/26 04:01:07;;;;;;;1.20;0.90;;;16.20;72.60;;;;;;5029311;28;20036;-85
2021/06/26 04:03:32;;;;;;;3.53;1.25;;;16.20;72.60;;;;;;5037538;28;20028;-85
2021/06/26 04:05:58;;;;;;;3.35;1.10;;;16.20;72.80;;;;;;5054469;28;20039;-85
2021/06/26 04:08:24;;;;;;;1.10;0.80;;;16.10;72.70;;;;;;5036216;28;20119;-84
2021/06/26 04:10:50;;;;;;;4.18;1.30;;;16.10;72.80;;;;;;5054029;28;20040;-85
2021/06/26 04:13:16;;;;;;;2.00;1.17;;;16.10;72.90;;;;;;5054365;28;20032;-85
2021/06/26 04:15:42;;;;;;;2.70;1.40;;;16.00;73.00;;;;;;5034877;28;20494;-85
2021/06/26 04:18:08;;;;;;;3.03;1.23;;;16.10;73.30;;;;;;5032593;28;20481;-85
2021/06/26 04:20:33;;;;;;;4.65;1.67;;;16.10;73.30;;;;;;5029707;28;20112;-85
2021/06/26 04:22:59;;;;;;;4.15;1.83;;;16.10;73.40;;;;;;5035930;28;20021;-85
2021/06/26 04:25:26;;;;;;;3.05;1.73;;;16.10;73.50;;;;;;5034610;28;20049;-84
2021/06/26 04:27:52;;;;;;;2.63;1.30;;;16.10;73.70;;;;;;5036445;28;20095;-84
2021/06/26 04:30:19;;;;;;;3.03;1.70;;;16.10;73.60;;;;;;5041334;28;20784;-84
2021/06/26 04:32:45;;;;;;;3.90;1.73;;;16.00;73.50;;;;;;5037374;28;21338;-84
2021/06/26 04:35:13;;;;;;;4.83;2.40;;;16.00;73.70;;;;;;5035077;28;20032;-84
2021/06/26 04:37:39;;;;;;;7.40;2.38;;;16.10;73.80;;;;;;5028976;28;20040;-84
2021/06/26 04:40:05;;;;;;;4.90;2.13;;;16.10;73.80;;;;;;5029343;28;20501;-84
2021/06/26 04:42:31;;;;;;;3.40;2.20;;;16.10;73.80;;;;;;5033282;28;20043;-84
2021/06/26 04:44:57;;;;;;;5.30;2.13;;;16.10;73.90;;;;;;5027639;28;20025;-84
2021/06/26 04:47:29;;;;;;;7.15;1.98;;;16.10;74.00;;;;;;5035343;28;20028;-85
2021/06/26 04:49:55;;;;;;;3.30;2.03;;;16.10;74.30;;;;;;5035314;28;20025;-85
2021/06/26 04:52:21;;;;;;;3.80;1.90;;;16.10;74.10;;;;;;5032704;28;20029;-85
2021/06/26 04:54:47;;;;;;;6.85;2.28;;;16.20;74.20;;;;;;5030500;28;20124;-85
2021/06/26 04:57:12;;;;;;;4.75;2.42;;;16.20;74.20;;;;;;5031040;28;20037;-85
2021/06/26 04:59:38;;;;;;;2.53;1.80;;;16.20;74.10;;;;;;5035406;28;20079;-85
2021/06/26 05:02:04;;;;;;;6.65;2.38;;;16.30;74.10;;;;;;5034544;28;20025;-85
2021/06/26 05:04:30;;;;;;;3.10;2.15;;;16.30;73.80;;;;;;5042524;28;20021;-84
2021/06/26 05:06:58;;;;;;;4.90;1.90;;;16.40;73.60;;;;;;5016998;28;20034;-85
2021/06/26 05:09:24;;;;;;;3.75;2.55;;;16.40;73.50;;;;;;5050060;28;20060;-84
2021/06/26 05:11:49;;;;;;;5.15;2.30;;;16.40;73.50;;;;;;5034279;28;20048;-84
2021/06/26 05:14:15;;;;;;;3.67;2.30;;;16.40;73.60;;;;;;5052808;28;20025;-84
2021/06/26 05:16:44;;;;;;;3.95;2.83;;;16.40;73.90;;;;;;5039605;28;20020;-84
2021/06/26 05:19:10;;;;;;;7.95;2.72;;;16.30;73.90;;;;;;5040584;28;20025;-84
2021/06/26 05:21:36;;;;;;;4.32;2.63;;;16.30;74.00;;;;;;5031538;28;20031;-84
2021/06/26 05:24:03;;;;;;;2.45;2.20;;;16.30;74.00;;;;;;5034625;28;20025;-84
2021/06/26 05:26:29;;;;;;;3.05;2.63;;;16.40;74.00;;;;;;5029542;28;20094;-84
2021/06/26 05:28:55;;;;;;;3.38;2.58;;;16.40;74.10;;;;;;5031322;28;20033;-84
2021/06/26 05:31:22;;;;;;;7.10;3.75;;;16.30;74.30;;;;;;5033594;28;20025;-84
2021/06/26 05:33:47;;;;;;;3.10;2.80;;;16.30;74.50;;;;;;5050736;28;20025;-84
2021/06/26 05:36:13;;;;;;;4.70;3.08;;;16.40;74.60;;;;;;5047717;28;20036;-85
2021/06/26 05:38:39;;;;;;;4.75;2.70;;;16.40;74.40;;;;;;5033580;28;20482;-84
2021/06/26 05:41:05;;;;;;;5.85;3.17;;;16.50;74.20;;;;;;5031676;28;20561;-84
2021/06/26 05:43:30;;;;;;;5.18;3.22;;;16.50;73.90;;;;;;5032806;28;20069;-84
2021/06/26 05:45:56;;;;;;;4.57;3.22;;;16.50;73.70;;;;;;5052609;28;20029;-84
2021/06/26 05:48:22;;;;;;;4.40;3.28;;;16.60;73.60;;;;;;5033775;28;20025;-84
2021/06/26 05:50:53;;;;;;;4.38;3.25;;;16.60;73.50;;;;;;5033614;28;20029;-84
2021/06/26 05:53:19;;;;;;;3.97;3.28;;;16.70;73.50;;;;;;5051042;28;20108;-84
2021/06/26 05:55:58;;;;;;;8.82;3.35;;;16.60;73.40;;;;;;5036144;28;20045;-84
2021/06/26 05:58:38;;;;;;;3.67;2.90;;;16.70;73.50;;;;;;5033296;28;20032;-84
2021/06/26 06:01:06;;;;;;;5.38;2.55;;;16.70;73.40;;;;;;5032846;28;20023;-84
2021/06/26 06:03:32;;;;;;;3.35;2.58;;;16.70;73.30;;;;;;5033290;28;20028;-84
2021/06/26 06:05:58;;;;;;;5.47;2.75;;;16.80;73.40;;;;;;5031995;28;20072;-84
2021/06/26 06:08:24;;;;;;;3.28;2.60;;;16.80;73.20;;;;;;5034246;28;20028;-84
2021/06/26 06:10:49;;;;;;;5.80;2.67;;;16.80;73.10;;;;;;5028880;28;20434;-84
2021/06/26 06:13:18;;;;;;;4.15;2.53;;;16.80;73.10;;;;;;5027712;28;20033;-84
2021/06/26 06:15:50;;;;;;;5.80;2.90;;;16.80;73.00;;;;;;5027061;28;20433;-84
2021/06/26 06:18:17;;;;;;;4.13;3.08;;;16.80;72.90;;;;;;5032369;28;20506;-84
2021/06/26 06:20:44;;;;;;;4.28;2.70;;;16.90;72.90;;;;;;5024052;28;20040;-84
2021/06/26 06:23:09;;;;;;;2.90;2.55;;;16.90;73.00;;;;;;5031831;28;20091;-84
2021/06/26 06:25:35;;;;;;;6.55;2.90;;;16.90;73.00;;;;;;5025145;28;20445;-84
2021/06/26 06:28:02;;;;;;;6.68;3.53;;;16.80;73.10;;;;;;5032158;28;20579;-84
2021/06/26 06:30:30;;;;;;;2.88;2.63;;;16.90;73.30;;;;;;5026714;28;20033;-84
2021/06/26 06:33:00;;;;;;;5.60;2.97;;;16.90;73.20;;;;;;5033666;28;20033;-84
2021/06/26 06:35:27;;;;;;;3.33;2.60;;;17.00;73.40;;;;;;5033600;28;20035;-83
2021/06/26 06:37:53;;;;;;;4.32;2.83;;;17.00;73.70;;;;;;5033417;28;20106;-84
2021/06/26 06:40:19;;;;;;;7.55;2.70;;;17.00;73.40;;;;;;5033403;28;20036;-84
2021/06/26 06:42:46;;;;;;;4.20;3.03;;;17.10;73.50;;;;;;5039289;28;20017;-84
2021/06/26 06:45:12;;;;;;;3.42;2.38;;;17.10;73.70;;;;;;5029429;28;20038;-84
2021/06/26 06:47:39;;;;;;;5.10;2.38;;;17.10;73.70;;;;;;5043899;28;20017;-84
2021/06/26 06:50:07;;;;;;;4.47;2.72;;;17.10;73.60;;;;;;5036489;28;20103;-84
2021/06/26 06:52:34;;;;;;;6.47;3.03;;;17.30;73.60;;;;;;5037542;28;20389;-84
2021/06/26 06:55:00;;;;;;;7.28;3.10;;;17.40;73.30;;;;;;5038851;28;20049;-85
2021/06/26 06:57:29;;;;;;;6.90;4.03;;;17.40;72.90;;;;;;5032810;28;20409;-85
2021/06/26 06:59:55;;;;;;;9.80;3.55;;;17.50;72.90;;;;;;5036936;28;20492;-85
2021/06/26 07:02:22;;;;;;;6.95;3.78;;;17.60;72.90;;;;;;5037538;28;20036;-85
2021/06/26 07:04:48;;;;;;;3.40;2.92;;;17.80;72.70;;;;;;5034748;28;20029;-84
2021/06/26 07:07:15;;;;;;;4.65;3.35;;;17.90;72.70;;;;;;5037007;28;20075;-84
2021/06/26 07:09:41;;;;;;;5.63;4.22;;;18.10;72.80;;;;;;5037715;28;20454;-84
2021/06/26 07:12:07;;;;;;;4.47;3.30;;;18.30;72.70;;;;;;5022493;28;20033;-85
2021/06/26 07:14:32;;;;;;;8.00;2.75;;;18.40;72.10;;;;;;5024739;28;20025;-85
2021/06/26 07:16:58;;;;;;;2.58;2.35;;;18.50;71.90;;;;;;5043174;28;20025;-84
2021/06/26 07:19:24;;;;;;;3.15;1.85;;;18.60;71.50;;;;;;5038082;28;20036;-84
2021/06/26 07:21:50;;;;;;;3.22;1.90;;;18.70;71.10;;;;;;5034989;28;20017;-85
2021/06/26 07:24:16;;;;;;;2.40;1.20;;;18.80;70.80;;;;;;5044966;28;20025;-84
2021/06/26 07:26:42;;;;;;;3.60;1.48;;;18.90;70.60;;;;;;5037677;28;20028;-84
2021/06/26 07:29:08;;;;;;;2.58;1.48;;;18.90;70.40;;;;;;5031133;28;20029;-84
2021/06/26 07:31:37;;;;;;;3.17;2.88;;;19.10;70.40;;;;;;5037641;28;20477;-85
2021/06/26 07:34:03;;;;;;;6.40;1.73;;;19.10;70.20;;;;;;5037477;28;20516;-85
2021/06/26 07:36:29;;;;;;;2.00;1.80;;;19.20;70.20;;;;;;5037196;28;20029;-85
2021/06/26 07:38:57;;;;;;;1.98;1.77;;;19.30;70.00;;;;;;5037532;28;20092;-85
2021/06/26 07:41:23;;;;;;;1.92;1.63;;;19.40;69.70;;;;;;5037310;28;20079;-85
2021/06/26 07:43:56;;;;;;;1.88;1.67;;;19.50;69.50;;;;;;5037609;28;20374;-85
2021/06/26 07:46:25;;;;;;;1.83;1.35;;;19.60;69.30;;;;;;5037234;28;20109;-85
2021/06/26 07:48:51;;;;;;;2.00;1.40;;;19.60;69.10;;;;;;5036937;28;20474;-85
2021/06/26 07:51:17;;;;;;;4.03;1.63;;;19.70;69.00;;;;;;5033575;28;20064;-85
2021/06/26 07:53:43;;;;;;;10.55;1.83;;;19.80;68.70;;;;;;5031958;28;20453;-84
2021/06/26 07:56:09;;;;;;;2.67;1.92;;;19.80;68.60;;;;;;5038144;28;20939;-84
2021/06/26 07:58:35;;;;;;;3.42;1.48;;;20.00;68.80;;;;;;5038132;28;20024;-84
2021/06/26 08:01:05;;;;;;;5.45;1.83;;;20.20;68.60;;;;;;5034944;28;20032;-85
2021/06/26 08:03:30;;;;;;;2.67;1.77;;;20.40;69.00;;;;;;5017112;28;20028;-85
2021/06/26 08:05:57;;;;;;;1.42;1.33;;;20.70;68.40;;;;;;5029166;28;20103;-86
2021/06/26 08:08:23;;;;;;;1.98;1.58;;;21.00;68.00;;;;;;5039064;28;20036;-84
2021/06/26 08:10:50;;;;;;;5.22;2.13;;;21.20;67.40;;;;;;5021757;28;20083;-84
2021/06/26 08:13:16;;;;;;;3.67;1.70;;;21.50;66.70;;;;;;5034437;28;20056;-85
2021/06/26 08:15:43;;;;;;;1.40;1.00;;;21.70;65.70;;;;;;5035613;28;20540;-84
2021/06/26 08:18:09;;;;;;;4.28;1.70;;;21.70;64.90;;;;;;5049875;28;20032;-85
2021/06/26 08:20:36;;;;;;;2.92;2.03;;;21.80;64.90;;;;;;5037127;28;20067;-85
2021/06/26 08:23:03;;;;;;;3.20;1.40;;;21.80;64.70;;;;;;5034744;28;20021;-85
2021/06/26 08:25:29;;;;;;;1.30;1.10;;;22.00;64.20;;;;;;5036691;28;20025;-86
2021/06/26 08:27:55;;;;;;;2.88;1.60;;;22.00;64.20;;;;;;5038577;28;20393;-86
2021/06/26 08:30:21;;;;;;;2.05;1.40;;;22.10;63.80;;;;;;5037046;28;20136;-86
2021/06/26 08:32:48;;;;;;;1.98;1.33;;;22.30;63.50;;;;;;5036930;28;20513;-86
2021/06/26 08:35:14;;;;;;;1.40;1.30;;;22.40;63.00;;;;;;5033961;28;20083;-86
2021/06/26 08:37:43;;;;;;;5.18;1.60;;;22.60;62.40;;;;;;5020869;28;20029;-86
2021/06/26 08:40:10;;;;;;;2.63;1.70;;;22.70;61.90;;;;;;5037092;28;20104;-86
2021/06/26 08:42:37;;;;;;;2.10;1.30;;;23.00;61.30;;;;;;5036647;28;20253;-85
2021/06/26 08:45:08;;;;;;;1.40;1.25;;;23.10;60.60;;;;;;5036886;28;20024;-85
2021/06/26 08:47:35;;;;;;;2.72;1.40;;;23.20;59.90;;;;;;5037093;28;20025;-85
2021/06/26 08:50:01;;;;;;;2.70;1.75;;;23.20;59.40;;;;;;5036816;28;20059;-85
2021/06/26 08:52:27;;;;;;;2.25;1.20;;;23.30;58.60;;;;;;5036119;28;20413;-85
2021/06/26 08:54:55;;;;;;;2.17;1.25;;;23.30;59.00;;;;;;5045100;28;20700;-85
2021/06/26 08:57:36;;;;;;;2.10;1.00;;;23.50;58.70;;;;;;5037067;28;20025;-85
2021/06/26 09:00:09;;;;;;;2.15;1.05;;;23.60;58.10;;;;;;5036328;28;20693;-85
2021/06/26 09:02:35;;;;;;;3.70;1.10;;;23.60;57.30;;;;;;5036795;28;20473;-85
2021/06/26 09:05:03;;;;;;;2.05;1.40;;;23.70;57.10;;;;;;5054145;28;20108;-85
2021/06/26 09:07:36;;;;;;;3.30;0.82;;;23.80;56.90;;;;;;5036565;28;20088;-85
2021/06/26 09:10:22;;;;;;;1.08;0.75;;;23.90;56.50;;;;;;5036495;28;20273;-85
2021/06/26 09:12:50;;;;;;;1.55;1.02;;;24.00;55.90;;;;;;5035626;28;20112;-85
2021/06/26 09:15:27;;;;;;;0.82;0.80;;;24.10;55.70;;;;;;5036445;28;20032;-85
2021/06/26 09:17:56;;;;;;;1.00;0.90;;;24.20;55.00;;;;;;5036434;28;20057;-84
2021/06/26 09:20:37;;;;;;;1.85;1.00;;;24.20;54.40;;;;;;5035711;28;20385;-85
2021/06/26 09:23:04;;;;;;;1.10;1.00;;;24.40;54.10;;;;;;5016511;28;20021;-84
2021/06/26 09:25:35;;;;;;;2.47;0.95;;;24.40;53.80;;;;;;5050957;28;20075;-88
2021/06/26 09:28:04;;;;;;;1.85;0.90;;;24.50;53.70;;;;;;5037298;28;20029;-84
2021/06/26 09:30:34;;;;;;;0.90;0.80;;;24.50;53.70;;;;;;5035364;28;20112;-85
2021/06/26 09:33:25;;;;;;;1.10;0.88;;;24.60;53.80;;;;;;5035859;28;20025;-85
2021/06/26 09:36:05;;;;;;;1.25;1.15;;;24.60;53.70;;;;;;5036871;28;20028;-85
2021/06/26 09:38:33;;;;;;;0.80;0.77;;;24.80;53.30;;;;;;5036260;28;20041;-86
2021/06/26 09:41:11;;;;;;;4.20;1.20;;;24.90;53.10;;;;;;5035852;28;20021;-86
2021/06/26 09:43:37;;;;;;;2.75;1.00;;;24.90;52.90;;;;;;5036531;28;20028;-86
2021/06/26 09:46:08;;;;;;;2.15;1.15;;;24.90;52.90;;;;;;5033895;28;20385;-86
2021/06/26 09:48:34;;;;;;;5.70;1.40;;;25.00;52.70;;;;;;5031668;28;20064;-85
2021/06/26 09:50:59;;;;;;;3.33;1.25;;;25.00;53.10;;;;;;5023458;28;20071;-86
2021/06/26 09:53:25;;;;;;;2.92;1.20;;;25.10;53.00;;;;;;5030774;28;20028;-86
2021/06/26 09:55:54;;;;;;;3.92;1.58;;;25.20;52.60;;;;;;5023826;28;20075;-86
2021/06/26 09:58:20;;;;;;;2.70;1.20;;;25.20;52.30;;;;;;5028313;28;20489;-85
2021/06/26 10:00:47;;;;;;;5.65;1.83;;;25.30;52.20;;;;;;5032008;28;20025;-86
2021/06/26 10:03:20;;;;;;;3.47;1.40;;;25.40;51.40;;;;;;5057335;28;20045;-86
2021/06/26 10:05:48;;;;;;;1.25;1.15;;;25.50;51.00;;;;;;5052578;28;20120;-86
2021/06/26 10:08:16;;;;;;;1.88;0.90;;;25.50;51.10;;;;;;5022382;28;20037;-86
2021/06/26 10:10:42;;;;;;;1.10;1.00;;;25.50;50.80;;;;;;5026581;28;20078;-86
2021/06/26 10:13:12;;;;;;;1.75;1.00;;;25.60;51.00;;;;;;5020700;28;20030;-86
2021/06/26 10:15:37;;;;;;;1.38;1.20;;;25.70;51.20;;;;;;5016430;28;20064;-86
2021/06/26 10:18:03;;;;;;;3.92;1.55;;;25.80;51.40;;;;;;5030290;28;20071;-86
2021/06/26 10:20:29;;;;;;;1.38;1.27;;;25.80;50.90;;;;;;5024081;28;20505;-85
2021/06/26 10:22:58;;;;;;;3.13;1.38;;;25.80;50.90;;;;;;5032416;28;20032;-86
2021/06/26 10:25:38;;;;;;;3.03;1.27;;;25.80;51.60;;;;;;5032048;28;20104;-86
2021/06/26 10:28:13;;;;;;;2.92;1.63;;;25.90;51.40;;;;;;5031244;28;20501;-86
2021/06/26 10:30:39;;;;;;;4.28;1.77;;;25.80;50.90;;;;;;5029682;28;20052;-85
2021/06/26 10:33:10;;;;;;;2.00;1.40;;;25.80;51.20;;;;;;5033213;28;20488;-85
2021/06/26 10:35:39;;;;;;;1.95;1.67;;;25.90;50.90;;;;;;5050012;28;20082;-86
2021/06/26 10:38:10;;;;;;;3.28;1.55;;;26.00;50.10;;;;;;5030765;28;20029;-86
2021/06/26 10:40:40;;;;;;;3.58;1.63;;;26.10;50.00;;;;;;5033829;28;20029;-85
2021/06/26 10:43:15;;;;;;;1.85;1.60;;;26.20;49.80;;;;;;5048346;28;20033;-85
2021/06/26 10:45:40;;;;;;;2.83;1.70;;;26.20;49.30;;;;;;5032382;28;20032;-86
2021/06/26 10:48:21;;;;;;;2.25;1.20;;;26.30;49.30;;;;;;5031735;28;20124;-86
2021/06/26 10:50:53;;;;;;;4.90;1.20;;;26.30;48.70;;;;;;5032669;28;20385;-86
2021/06/26 10:53:28;;;;;;;1.42;1.15;;;26.40;48.40;;;;;;5050729;28;20040;-86
2021/06/26 10:55:59;;;;;;;0.88;0.85;;;26.50;48.20;;;;;;5030213;28;20048;-86
2021/06/26 10:58:30;;;;;;;1.83;0.95;;;26.50;47.90;;;;;;5034146;28;20029;-85
2021/06/26 11:00:57;;;;;;;2.22;1.38;;;26.50;47.90;;;;;;5034037;28;20032;-86
2021/06/26 11:03:30;;;;;;;0.68;0.68;;;26.40;47.50;;;;;;5034195;28;20469;-86
2021/06/26 11:05:59;;;;;;;1.23;1.13;;;26.40;47.50;;;;;;5033631;28;20086;-86
2021/06/26 11:08:25;;;;;;;0.90;0.80;;;26.50;47.60;;;;;;5033988;28;20057;-86
2021/06/26 11:10:58;;;;;;;1.98;1.23;;;26.60;47.30;;;;;;5030794;28;20057;-86
2021/06/26 11:13:30;;;;;;;0.90;0.70;;;26.60;47.00;;;;;;5035765;28;20025;-84
2021/06/26 11:16:07;;;;;;;1.27;0.80;;;26.60;46.70;;;;;;5030589;28;20029;-85
2021/06/26 11:18:33;;;;;;;0.73;0.57;;;26.60;46.40;;;;;;5034286;28;20052;-86
2021/06/26 11:20:59;;;;;;;1.70;0.63;;;26.60;46.00;;;;;;5027272;28;20037;-86
2021/06/26 11:23:25;;;;;;;1.15;0.85;;;26.70;46.20;;;;;;5033555;28;20036;-85
2021/06/26 11:25:52;;;;;;;0.85;0.85;;;26.70;45.90;;;;;;5031467;28;20478;-85
2021/06/26 11:28:18;;;;;;;2.55;1.15;;;26.80;45.70;;;;;;5033928;28;20033;-85
2021/06/26 11:30:57;;;;;;;1.45;0.80;;;26.70;45.40;;;;;;5031587;28;20025;-86
2021/06/26 11:33:31;;;;;;;1.15;0.80;;;26.70;45.10;;;;;;5048907;28;20102;-85
2021/06/26 11:35:57;;;;;;;1.20;1.10;;;26.80;45.20;;;;;;5022969;28;20060;-85
2021/06/26 11:38:23;;;;;;;3.42;0.88;;;26.90;44.80;;;;;;5037699;28;20025;-85
2021/06/26 11:40:51;;;;;;;2.03;0.80;;;27.00;44.80;;;;;;5038079;28;20112;-86
2021/06/26 11:43:17;;;;;;;2.53;1.00;;;27.10;45.00;;;;;;5056078;28;20020;-85
2021/06/26 11:45:47;;;;;;;1.58;1.15;;;27.10;45.00;;;;;;5033194;28;20121;-86
2021/06/26 11:48:15;;;;;;;1.23;0.70;;;27.10;45.00;;;;;;5023559;28;20098;-86
2021/06/26 11:50:51;;;;;;;2.95;1.00;;;27.20;45.20;;;;;;5024796;28;20049;-86
2021/06/26 11:53:18;;;;;;;2.13;0.98;;;27.20;45.00;;;;;;5030949;28;20068;-86
2021/06/26 11:55:50;;;;;;;1.27;1.08;;;27.30;45.10;;;;;;5032329;28;20065;-85
2021/06/26 11:58:19;;;;;;;1.52;1.05;;;27.30;44.40;;;;;;5037006;28;20120;-86
2021/06/26 12:00:48;;;;;;;2.25;1.17;;;27.30;44.00;;;;;;5052282;28;20044;-85
2021/06/26 12:03:21;;;;;;;2.30;1.17;;;27.50;44.70;;;;;;5028349;28;20048;-85
2021/06/26 12:05:58;;;;;;;1.33;1.02;;;27.60;44.80;;;;;;5020104;28;20021;-85
2021/06/26 12:08:23;;;;;;;1.33;1.10;;;27.70;44.80;;;;;;5041254;28;20029;-85
2021/06/26 12:10:50;;;;;;;2.10;1.17;;;27.70;44.80;;;;;;5030885;28;20367;-86
2021/06/26 12:13:16;;;;;;;1.27;0.80;;;27.70;44.60;;;;;;5055386;28;20421;-86
2021/06/26 12:15:43;;;;;;;1.38;0.85;;;27.70;44.80;;;;;;5029026;28;20142;-86
2021/06/26 12:18:09;;;;;;;3.13;0.98;;;27.90;44.90;;;;;;5051637;28;20807;-86
2021/06/26 12:20:37;;;;;;;2.65;0.90;;;27.90;44.00;;;;;;5035767;28;20025;-86
2021/06/26 12:23:08;;;;;;;1.40;1.15;;;27.90;43.90;;;;;;5040481;28;20057;-86
2021/06/26 12:25:45;;;;;;;1.10;1.00;;;27.90;43.30;;;;;;5055329;28;20025;-86
2021/06/26 12:28:11;;;;;;;2.92;1.20;;;28.00;43.40;;;;;;5043597;28;20115;-86
2021/06/26 12:30:42;;;;;;;2.08;1.00;;;28.00;43.10;;;;;;5037170;28;20025;-86
2021/06/26 12:33:10;;;;;;;0.70;0.60;;;28.10;42.80;;;;;;5034543;28;20033;-86
2021/06/26 12:35:36;;;;;;;0.70;0.70;;;28.10;42.30;;;;;;5049121;28;20039;-86
2021/06/26 12:38:04;;;;;;;2.45;0.80;;;28.10;42.20;;;;;;5038128;28;20121;-86
2021/06/26 12:40:34;;;;;;;3.55;0.80;;;28.20;42.00;;;;;;5036662;28;20021;-86
2021/06/26 12:43:14;;;;;;;1.23;1.10;;;28.20;41.80;;;;;;5041588;28;20017;-87
2021/06/26 12:45:51;;;;;;;0.55;0.55;;;28.20;41.40;;;;;;5030138;28;20203;-88
2021/06/26 12:48:20;;;;;;;1.73;1.10;;;28.30;41.50;;;;;;5035613;28;20029;-87
2021/06/26 12:51:09;;;;;;;1.30;0.70;;;28.40;41.60;;;;;;5035771;28;20029;-87